Huvudsida
METAR-TAF:

METAR-TAF

Flygplatser :

Norrköping flygplats

Norrköping, Sverige

latitud: 58-35N, longitud: 016-09E, höjd: 34 m

Aktuellt väderrapport

Denna rapport gjordes för 45 minuter sedan, klockan 11:50 UTC
Vind 20 kt från väst i byarna ända upp till 30 kt
Temperatur 11°C
Fuktighet 82%
Tryck 1016 hPa
Sikt 10 km eller mer
Brutna moln på en höjd av 1800 ft

METAR: ESSP 211150Z 26020G30KT 9999 BKN018 11/08 Q1016 R27/09//77

Tid: 13:35 (12:35 UTC)

Väderprognos

Denna rapport gjordes för 1 timme och 5 minuter sedan, klockan 11:30 UTC
Prognos gäller från 21 kl. 12 UTC till 21 kl. 21 UTC
Vind 24 kt från väst i byarna ända upp till 34 kt
Sikt 10 km eller mer
Brutna moln på en höjd av 2000 ft
Blir
från 21 kl. 12 UTC till 21 kl. 14 UTC
Vind 14 kt från väst i byarna ända upp till 24 kt

TAF: ESSP 211130Z 2112/2121 26024G34KT 9999 BKN020 BECMG 2112/2114 27014G24KT

Aktuella väderrapporter och prognoser från 4000 flygplatser (METAR- och TAF-rapporter).

De tillgängliga stationerna syns som gula och röda prickar på kartan.

För musen över prickarna för att se namnen på stationerna.

Klicka sedan för att få väderrapporter och prognoser.

För att ändra kartan: Klicka på de gröna knapparna med ett svart kors på för att zooma in; den gröna knappen med ett streck på för att zooma ut; eller på de gröna pilarna för angränsande kartor.


METAR-TAF: